sensor_id;sensor_type;location;lat;lon;timestamp;temperature;humidity
49242;DHT22;35079;52.704;13.814;2022-12-18T00:01:47;-3.70;99.90
49242;DHT22;35079;52.704;13.814;2022-12-18T00:04:24;-3.60;99.90
49242;DHT22;35079;52.704;13.814;2022-12-18T00:06:50;-3.60;99.90
49242;DHT22;35079;52.704;13.814;2022-12-18T00:09:16;-3.70;99.90
49242;DHT22;35079;52.704;13.814;2022-12-18T00:11:42;-3.60;99.90
49242;DHT22;35079;52.704;13.814;2022-12-18T00:14:09;-3.60;99.90
49242;DHT22;35079;52.704;13.814;2022-12-18T00:16:36;-3.60;99.90
49242;DHT22;35079;52.704;13.814;2022-12-18T00:19:03;-3.70;99.90
49242;DHT22;35079;52.704;13.814;2022-12-18T00:21:30;-3.30;99.90
49242;DHT22;35079;52.704;13.814;2022-12-18T00:23:56;-3.50;99.90
49242;DHT22;35079;52.704;13.814;2022-12-18T00:26:31;-3.50;99.90
49242;DHT22;35079;52.704;13.814;2022-12-18T00:28:59;-3.50;99.90
49242;DHT22;35079;52.704;13.814;2022-12-18T00:31:25;-3.60;99.90
49242;DHT22;35079;52.704;13.814;2022-12-18T00:33:51;-3.60;99.90
49242;DHT22;35079;52.704;13.814;2022-12-18T00:36:23;-3.60;99.90
49242;DHT22;35079;52.704;13.814;2022-12-18T00:38:49;-3.70;99.90
49242;DHT22;35079;52.704;13.814;2022-12-18T00:41:15;-3.70;99.90
49242;DHT22;35079;52.704;13.814;2022-12-18T00:44:03;-3.60;99.90
49242;DHT22;35079;52.704;13.814;2022-12-18T00:46:28;-3.70;99.90
49242;DHT22;35079;52.704;13.814;2022-12-18T00:48:54;-3.70;99.90
49242;DHT22;35079;52.704;13.814;2022-12-18T00:51:20;-3.70;99.90
49242;DHT22;35079;52.704;13.814;2022-12-18T00:53:45;-3.80;99.90
49242;DHT22;35079;52.704;13.814;2022-12-18T00:56:12;-3.80;99.90
49242;DHT22;35079;52.704;13.814;2022-12-18T00:58:37;-3.80;99.90
49242;DHT22;35079;52.704;13.814;2022-12-18T01:01:06;-4.00;99.90
49242;DHT22;35079;52.704;13.814;2022-12-18T01:03:32;-4.00;99.90
49242;DHT22;35079;52.704;13.814;2022-12-18T01:05:58;-4.10;99.90
49242;DHT22;35079;52.704;13.814;2022-12-18T01:08:23;-4.10;99.90
49242;DHT22;35079;52.704;13.814;2022-12-18T01:10:51;-4.00;99.90
49242;DHT22;35079;52.704;13.814;2022-12-18T01:13:17;-3.90;99.90
49242;DHT22;35079;52.704;13.814;2022-12-18T01:15:50;-4.00;99.90
49242;DHT22;35079;52.704;13.814;2022-12-18T01:18:15;-3.90;99.90
49242;DHT22;35079;52.704;13.814;2022-12-18T01:20:41;-3.90;99.90
49242;DHT22;35079;52.704;13.814;2022-12-18T01:23:07;-3.90;99.90
49242;DHT22;35079;52.704;13.814;2022-12-18T01:25:32;-4.10;99.90
49242;DHT22;35079;52.704;13.814;2022-12-18T01:27:58;-4.20;99.90
49242;DHT22;35079;52.704;13.814;2022-12-18T01:30:24;-4.20;99.90
49242;DHT22;35079;52.704;13.814;2022-12-18T01:32:50;-4.10;99.90
49242;DHT22;35079;52.704;13.814;2022-12-18T01:35:15;-4.10;99.90
49242;DHT22;35079;52.704;13.814;2022-12-18T01:37:41;-4.00;99.90
49242;DHT22;35079;52.704;13.814;2022-12-18T01:40:07;-4.20;99.90
49242;DHT22;35079;52.704;13.814;2022-12-18T01:42:33;-4.30;99.90
49242;DHT22;35079;52.704;13.814;2022-12-18T01:45:00;-4.00;99.90
49242;DHT22;35079;52.704;13.814;2022-12-18T01:50:13;-4.10;99.90
49242;DHT22;35079;52.704;13.814;2022-12-18T01:52:45;-4.20;99.90
49242;DHT22;35079;52.704;13.814;2022-12-18T01:55:12;-4.20;99.90
49242;DHT22;35079;52.704;13.814;2022-12-18T01:57:39;-4.20;99.90
49242;DHT22;35079;52.704;13.814;2022-12-18T02:00:10;-4.10;99.90
49242;DHT22;35079;52.704;13.814;2022-12-18T02:02:36;-4.10;99.90
49242;DHT22;35079;52.704;13.814;2022-12-18T02:05:03;-4.30;99.90
49242;DHT22;35079;52.704;13.814;2022-12-18T02:10:31;-4.10;99.90
49242;DHT22;35079;52.704;13.814;2022-12-18T02:13:14;-4.10;99.90
49242;DHT22;35079;52.704;13.814;2022-12-18T02:16:02;-4.20;99.90
49242;DHT22;35079;52.704;13.814;2022-12-18T02:18:41;-4.20;99.90
49242;DHT22;35079;52.704;13.814;2022-12-18T02:21:25;-4.30;99.90
49242;DHT22;35079;52.704;13.814;2022-12-18T02:26:50;-4.40;99.90
49242;DHT22;35079;52.704;13.814;2022-12-18T02:29:32;-4.30;99.90
49242;DHT22;35079;52.704;13.814;2022-12-18T02:32:00;-4.40;99.90
49242;DHT22;35079;52.704;13.814;2022-12-18T02:34:30;-4.20;99.90
49242;DHT22;35079;52.704;13.814;2022-12-18T02:36:58;-4.30;99.90
49242;DHT22;35079;52.704;13.814;2022-12-18T02:39:26;-4.30;99.90
49242;DHT22;35079;52.704;13.814;2022-12-18T02:41:53;-4.40;99.90
49242;DHT22;35079;52.704;13.814;2022-12-18T02:44:18;-4.30;99.90
49242;DHT22;35079;52.704;13.814;2022-12-18T02:46:52;-4.30;99.90
49242;DHT22;35079;52.704;13.814;2022-12-18T02:49:36;-4.30;99.90
49242;DHT22;35079;52.704;13.814;2022-12-18T02:57:54;-4.30;99.90
49242;DHT22;35079;52.704;13.814;2022-12-18T03:00:54;-4.30;99.90
49242;DHT22;35079;52.704;13.814;2022-12-18T03:04:07;-4.20;99.90
49242;DHT22;35079;52.704;13.814;2022-12-18T03:06:33;-4.30;99.90
49242;DHT22;35079;52.704;13.814;2022-12-18T03:09:07;-4.40;99.90
49242;DHT22;35079;52.704;13.814;2022-12-18T03:11:37;-4.40;99.90
49242;DHT22;35079;52.704;13.814;2022-12-18T03:14:24;-4.30;99.90
49242;DHT22;35079;52.704;13.814;2022-12-18T03:16:54;-4.40;99.90
49242;DHT22;35079;52.704;13.814;2022-12-18T03:19:23;-4.40;99.90
49242;DHT22;35079;52.704;13.814;2022-12-18T03:21:54;-4.30;99.90
49242;DHT22;35079;52.704;13.814;2022-12-18T03:24:21;-4.20;99.90
49242;DHT22;35079;52.704;13.814;2022-12-18T03:26:52;-4.40;99.90
49242;DHT22;35079;52.704;13.814;2022-12-18T03:29:25;-4.60;99.90
49242;DHT22;35079;52.704;13.814;2022-12-18T03:31:55;-4.50;99.90
49242;DHT22;35079;52.704;13.814;2022-12-18T03:34:27;-4.50;99.90
49242;DHT22;35079;52.704;13.814;2022-12-18T03:36:57;-4.50;99.90
49242;DHT22;35079;52.704;13.814;2022-12-18T03:39:24;-4.50;99.90
49242;DHT22;35079;52.704;13.814;2022-12-18T03:42:16;-4.50;99.90
49242;DHT22;35079;52.704;13.814;2022-12-18T03:45:06;-4.50;99.90
49242;DHT22;35079;52.704;13.814;2022-12-18T03:47:36;-4.40;99.90
49242;DHT22;35079;52.704;13.814;2022-12-18T03:50:15;-4.50;99.90
49242;DHT22;35079;52.704;13.814;2022-12-18T03:52:57;-4.30;99.90
49242;DHT22;35079;52.704;13.814;2022-12-18T03:55:24;-4.40;99.90
49242;DHT22;35079;52.704;13.814;2022-12-18T03:57:52;-4.50;99.90
49242;DHT22;35079;52.704;13.814;2022-12-18T04:00:19;-4.50;99.90
49242;DHT22;35079;52.704;13.814;2022-12-18T04:02:50;-4.50;99.90
49242;DHT22;35079;52.704;13.814;2022-12-18T04:05:18;-4.50;99.90
49242;DHT22;35079;52.704;13.814;2022-12-18T04:07:47;-4.60;99.90
49242;DHT22;35079;52.704;13.814;2022-12-18T04:10:14;-4.70;99.90
49242;DHT22;35079;52.704;13.814;2022-12-18T04:12:41;-4.70;99.90
49242;DHT22;35079;52.704;13.814;2022-12-18T04:15:08;-4.70;99.90
49242;DHT22;35079;52.704;13.814;2022-12-18T04:17:34;-4.70;99.90
49242;DHT22;35079;52.704;13.814;2022-12-18T04:19:59;-4.80;99.90
49242;DHT22;35079;52.704;13.814;2022-12-18T04:22:26;-4.90;99.90
49242;DHT22;35079;52.704;13.814;2022-12-18T04:24:52;-4.90;99.90
49242;DHT22;35079;52.704;13.814;2022-12-18T04:27:18;-5.00;99.90
49242;DHT22;35079;52.704;13.814;2022-12-18T04:29:43;-5.00;99.90
49242;DHT22;35079;52.704;13.814;2022-12-18T04:32:09;-5.00;99.90
49242;DHT22;35079;52.704;13.814;2022-12-18T04:34:34;-5.10;99.90
49242;DHT22;35079;52.704;13.814;2022-12-18T04:37:00;-5.10;99.90
49242;DHT22;35079;52.704;13.814;2022-12-18T04:39:26;-5.10;99.90
49242;DHT22;35079;52.704;13.814;2022-12-18T04:41:52;-5.20;99.90
49242;DHT22;35079;52.704;13.814;2022-12-18T04:44:17;-5.20;99.90
49242;DHT22;35079;52.704;13.814;2022-12-18T04:46:43;-5.30;99.90
49242;DHT22;35079;52.704;13.814;2022-12-18T04:49:09;-5.00;99.90
49242;DHT22;35079;52.704;13.814;2022-12-18T04:51:36;-5.10;99.90
49242;DHT22;35079;52.704;13.814;2022-12-18T04:54:02;-5.10;99.90
49242;DHT22;35079;52.704;13.814;2022-12-18T04:56:27;-4.90;99.90
49242;DHT22;35079;52.704;13.814;2022-12-18T04:58:53;-5.20;99.90
49242;DHT22;35079;52.704;13.814;2022-12-18T05:01:19;-5.20;99.90
49242;DHT22;35079;52.704;13.814;2022-12-18T05:03:44;-5.10;99.90
49242;DHT22;35079;52.704;13.814;2022-12-18T05:06:10;-5.10;99.90
49242;DHT22;35079;52.704;13.814;2022-12-18T05:08:36;-5.10;99.90
49242;DHT22;35079;52.704;13.814;2022-12-18T05:11:04;-5.10;99.90
49242;DHT22;35079;52.704;13.814;2022-12-18T05:13:31;-5.00;99.90
49242;DHT22;35079;52.704;13.814;2022-12-18T05:15:57;-5.00;99.90
49242;DHT22;35079;52.704;13.814;2022-12-18T05:18:23;-5.00;99.90
49242;DHT22;35079;52.704;13.814;2022-12-18T05:20:50;-5.00;99.90
49242;DHT22;35079;52.704;13.814;2022-12-18T05:23:15;-5.10;99.90
49242;DHT22;35079;52.704;13.814;2022-12-18T05:25:41;-5.00;99.90
49242;DHT22;35079;52.704;13.814;2022-12-18T05:28:07;-5.20;99.90
49242;DHT22;35079;52.704;13.814;2022-12-18T05:30:34;-5.10;99.90
49242;DHT22;35079;52.704;13.814;2022-12-18T05:33:00;-4.90;99.90
49242;DHT22;35079;52.704;13.814;2022-12-18T05:35:25;-5.10;99.90
49242;DHT22;35079;52.704;13.814;2022-12-18T05:37:51;-5.00;99.90
49242;DHT22;35079;52.704;13.814;2022-12-18T05:40:17;-5.10;99.90
49242;DHT22;35079;52.704;13.814;2022-12-18T05:42:42;-5.00;99.90
49242;DHT22;35079;52.704;13.814;2022-12-18T05:45:08;-5.10;99.90
49242;DHT22;35079;52.704;13.814;2022-12-18T05:47:34;-5.20;99.90
49242;DHT22;35079;52.704;13.814;2022-12-18T05:50:00;-5.40;99.90
49242;DHT22;35079;52.704;13.814;2022-12-18T05:52:25;-5.20;99.90
49242;DHT22;35079;52.704;13.814;2022-12-18T05:54:51;-5.10;99.90
49242;DHT22;35079;52.704;13.814;2022-12-18T05:57:17;-5.10;99.90
49242;DHT22;35079;52.704;13.814;2022-12-18T05:59:42;-5.10;99.90
49242;DHT22;35079;52.704;13.814;2022-12-18T06:02:08;-5.00;99.90
49242;DHT22;35079;52.704;13.814;2022-12-18T06:04:34;-5.00;99.90
49242;DHT22;35079;52.704;13.814;2022-12-18T06:06:59;-5.00;99.90
49242;DHT22;35079;52.704;13.814;2022-12-18T06:09:25;-5.20;99.90
49242;DHT22;35079;52.704;13.814;2022-12-18T06:11:51;-5.30;99.90
49242;DHT22;35079;52.704;13.814;2022-12-18T06:14:17;-5.20;99.90
49242;DHT22;35079;52.704;13.814;2022-12-18T06:16:43;-5.10;99.90
49242;DHT22;35079;52.704;13.814;2022-12-18T06:19:15;-5.30;99.90
49242;DHT22;35079;52.704;13.814;2022-12-18T06:21:41;-5.10;99.90
49242;DHT22;35079;52.704;13.814;2022-12-18T06:24:07;-5.20;99.90
49242;DHT22;35079;52.704;13.814;2022-12-18T06:26:33;-5.00;99.90
49242;DHT22;35079;52.704;13.814;2022-12-18T06:28:59;-5.10;99.90
49242;DHT22;35079;52.704;13.814;2022-12-18T06:31:25;-5.20;99.90
49242;DHT22;35079;52.704;13.814;2022-12-18T06:33:54;-5.30;99.90
49242;DHT22;35079;52.704;13.814;2022-12-18T06:36:19;-5.40;99.90
49242;DHT22;35079;52.704;13.814;2022-12-18T06:38:46;-5.40;99.90
49242;DHT22;35079;52.704;13.814;2022-12-18T06:41:14;-5.40;99.90
49242;DHT22;35079;52.704;13.814;2022-12-18T06:43:40;-5.40;99.90
49242;DHT22;35079;52.704;13.814;2022-12-18T06:46:05;-5.40;99.90
49242;DHT22;35079;52.704;13.814;2022-12-18T06:48:32;-5.50;99.90
49242;DHT22;35079;52.704;13.814;2022-12-18T06:50:58;-5.40;99.90
49242;DHT22;35079;52.704;13.814;2022-12-18T06:53:23;-5.40;99.90
49242;DHT22;35079;52.704;13.814;2022-12-18T06:55:49;-5.40;99.90
49242;DHT22;35079;52.704;13.814;2022-12-18T06:58:15;-5.40;99.90
49242;DHT22;35079;52.704;13.814;2022-12-18T07:00:41;-5.50;99.90
49242;DHT22;35079;52.704;13.814;2022-12-18T07:03:06;-5.40;99.90
49242;DHT22;35079;52.704;13.814;2022-12-18T07:05:32;-5.30;99.90
49242;DHT22;35079;52.704;13.814;2022-12-18T07:07:59;-5.20;99.90
49242;DHT22;35079;52.704;13.814;2022-12-18T07:10:25;-5.20;99.90
49242;DHT22;35079;52.704;13.814;2022-12-18T07:12:51;-5.20;99.90
49242;DHT22;35079;52.704;13.814;2022-12-18T07:15:17;-5.20;99.90
49242;DHT22;35079;52.704;13.814;2022-12-18T07:17:42;-5.20;99.90
49242;DHT22;35079;52.704;13.814;2022-12-18T07:20:08;-5.30;99.90
49242;DHT22;35079;52.704;13.814;2022-12-18T07:22:34;-5.20;99.90
49242;DHT22;35079;52.704;13.814;2022-12-18T07:25:00;-5.20;99.90
49242;DHT22;35079;52.704;13.814;2022-12-18T07:27:25;-5.10;99.90
49242;DHT22;35079;52.704;13.814;2022-12-18T07:29:51;-5.10;99.90
49242;DHT22;35079;52.704;13.814;2022-12-18T07:32:17;-5.20;99.90
49242;DHT22;35079;52.704;13.814;2022-12-18T07:34:42;-5.10;99.90
49242;DHT22;35079;52.704;13.814;2022-12-18T07:37:08;-5.10;99.90
49242;DHT22;35079;52.704;13.814;2022-12-18T07:39:33;-5.00;99.90
49242;DHT22;35079;52.704;13.814;2022-12-18T07:41:59;-5.10;99.90
49242;DHT22;35079;52.704;13.814;2022-12-18T07:44:43;-5.20;99.90
49242;DHT22;35079;52.704;13.814;2022-12-18T07:47:09;-5.20;99.90
49242;DHT22;35079;52.704;13.814;2022-12-18T07:49:34;-5.10;99.90
49242;DHT22;35079;52.704;13.814;2022-12-18T07:52:00;-5.20;99.90
49242;DHT22;35079;52.704;13.814;2022-12-18T07:54:27;-5.20;99.90
49242;DHT22;35079;52.704;13.814;2022-12-18T07:56:52;-5.10;99.90
49242;DHT22;35079;52.704;13.814;2022-12-18T07:59:18;-5.20;99.90
49242;DHT22;35079;52.704;13.814;2022-12-18T08:01:46;-5.10;99.90
49242;DHT22;35079;52.704;13.814;2022-12-18T08:04:12;-5.00;99.90
49242;DHT22;35079;52.704;13.814;2022-12-18T08:06:37;-5.10;99.90
49242;DHT22;35079;52.704;13.814;2022-12-18T08:09:03;-5.10;99.90
49242;DHT22;35079;52.704;13.814;2022-12-18T08:11:29;-5.10;99.90
49242;DHT22;35079;52.704;13.814;2022-12-18T08:13:55;-4.90;99.90
49242;DHT22;35079;52.704;13.814;2022-12-18T08:16:21;-5.00;99.90
49242;DHT22;35079;52.704;13.814;2022-12-18T08:18:47;-4.90;99.90
49242;DHT22;35079;52.704;13.814;2022-12-18T08:21:22;-5.00;99.90
49242;DHT22;35079;52.704;13.814;2022-12-18T08:23:49;-5.10;99.90
49242;DHT22;35079;52.704;13.814;2022-12-18T08:26:15;-5.00;99.90
49242;DHT22;35079;52.704;13.814;2022-12-18T08:28:41;-5.00;99.90
49242;DHT22;35079;52.704;13.814;2022-12-18T08:31:07;-5.10;99.90
49242;DHT22;35079;52.704;13.814;2022-12-18T08:33:34;-5.10;99.90
49242;DHT22;35079;52.704;13.814;2022-12-18T08:36:01;-5.00;99.90
49242;DHT22;35079;52.704;13.814;2022-12-18T08:38:27;-5.00;99.90
49242;DHT22;35079;52.704;13.814;2022-12-18T08:41:00;-5.00;99.90
49242;DHT22;35079;52.704;13.814;2022-12-18T08:43:26;-5.10;99.90
49242;DHT22;35079;52.704;13.814;2022-12-18T08:46:11;-5.00;99.90
49242;DHT22;35079;52.704;13.814;2022-12-18T08:48:37;-4.90;99.90
49242;DHT22;35079;52.704;13.814;2022-12-18T08:51:03;-4.80;99.90
49242;DHT22;35079;52.704;13.814;2022-12-18T08:53:29;-4.50;99.90
49242;DHT22;35079;52.704;13.814;2022-12-18T08:55:56;-4.60;99.90
49242;DHT22;35079;52.704;13.814;2022-12-18T08:58:22;-4.50;99.90
49242;DHT22;35079;52.704;13.814;2022-12-18T09:00:47;-4.40;99.90
49242;DHT22;35079;52.704;13.814;2022-12-18T09:03:14;-4.50;99.90
49242;DHT22;35079;52.704;13.814;2022-12-18T09:05:40;-4.50;99.90
49242;DHT22;35079;52.704;13.814;2022-12-18T09:08:06;-4.40;99.90
49242;DHT22;35079;52.704;13.814;2022-12-18T09:10:32;-4.50;99.90
49242;DHT22;35079;52.704;13.814;2022-12-18T09:12:57;-4.30;99.90
49242;DHT22;35079;52.704;13.814;2022-12-18T09:15:23;-4.40;99.90
49242;DHT22;35079;52.704;13.814;2022-12-18T09:17:49;-4.40;99.90
49242;DHT22;35079;52.704;13.814;2022-12-18T09:20:15;-4.40;99.90
49242;DHT22;35079;52.704;13.814;2022-12-18T09:22:41;-4.20;99.90
49242;DHT22;35079;52.704;13.814;2022-12-18T09:25:07;-4.30;99.90
49242;DHT22;35079;52.704;13.814;2022-12-18T09:27:33;-4.20;99.90
49242;DHT22;35079;52.704;13.814;2022-12-18T09:29:59;-4.10;99.90
49242;DHT22;35079;52.704;13.814;2022-12-18T09:32:25;-4.10;99.90
49242;DHT22;35079;52.704;13.814;2022-12-18T09:34:51;-4.00;99.90
49242;DHT22;35079;52.704;13.814;2022-12-18T09:37:17;-3.80;99.90
49242;DHT22;35079;52.704;13.814;2022-12-18T09:39:42;-3.80;99.90
49242;DHT22;35079;52.704;13.814;2022-12-18T09:42:26;-3.80;99.90
49242;DHT22;35079;52.704;13.814;2022-12-18T09:44:53;-3.80;99.90
49242;DHT22;35079;52.704;13.814;2022-12-18T09:47:28;-3.80;99.90
49242;DHT22;35079;52.704;13.814;2022-12-18T09:50:02;-3.90;99.90
49242;DHT22;35079;52.704;13.814;2022-12-18T09:52:39;-3.90;99.90
49242;DHT22;35079;52.704;13.814;2022-12-18T09:57:56;-3.60;99.90
49242;DHT22;35079;52.704;13.814;2022-12-18T10:00:24;-3.60;99.90
49242;DHT22;35079;52.704;13.814;2022-12-18T10:02:51;-3.40;99.90
49242;DHT22;35079;52.704;13.814;2022-12-18T10:05:34;-3.50;99.90
49242;DHT22;35079;52.704;13.814;2022-12-18T10:10:56;-3.50;99.90
49242;DHT22;35079;52.704;13.814;2022-12-18T10:13:42;-3.50;99.90
49242;DHT22;35079;52.704;13.814;2022-12-18T10:16:25;-3.50;99.90
49242;DHT22;35079;52.704;13.814;2022-12-18T10:24:45;-3.40;99.90
49242;DHT22;35079;52.704;13.814;2022-12-18T10:27:17;-3.40;99.90
49242;DHT22;35079;52.704;13.814;2022-12-18T10:29:44;-3.50;99.90
49242;DHT22;35079;52.704;13.814;2022-12-18T10:32:21;-3.40;99.90
49242;DHT22;35079;52.704;13.814;2022-12-18T10:34:48;-3.30;99.90
49242;DHT22;35079;52.704;13.814;2022-12-18T10:37:23;-3.20;99.90
49242;DHT22;35079;52.704;13.814;2022-12-18T10:40:14;-3.10;99.90
49242;DHT22;35079;52.704;13.814;2022-12-18T10:42:41;-3.00;99.90
49242;DHT22;35079;52.704;13.814;2022-12-18T10:45:15;-3.00;99.90
49242;DHT22;35079;52.704;13.814;2022-12-18T10:47:50;-3.00;99.90
49242;DHT22;35079;52.704;13.814;2022-12-18T10:50:29;-3.00;99.90
49242;DHT22;35079;52.704;13.814;2022-12-18T10:53:00;-3.10;99.90
49242;DHT22;35079;52.704;13.814;2022-12-18T10:55:32;-2.90;99.90
49242;DHT22;35079;52.704;13.814;2022-12-18T10:58:28;-2.80;99.90
49242;DHT22;35079;52.704;13.814;2022-12-18T11:01:15;-2.70;99.90
49242;DHT22;35079;52.704;13.814;2022-12-18T11:06:22;-3.10;99.90
49242;DHT22;35079;52.704;13.814;2022-12-18T11:09:05;-3.20;99.90
49242;DHT22;35079;52.704;13.814;2022-12-18T11:11:32;-3.20;99.90
49242;DHT22;35079;52.704;13.814;2022-12-18T11:14:05;-3.20;99.90
49242;DHT22;35079;52.704;13.814;2022-12-18T11:16:37;-3.20;99.90
49242;DHT22;35079;52.704;13.814;2022-12-18T11:19:38;-3.30;99.90
49242;DHT22;35079;52.704;13.814;2022-12-18T11:22:24;-3.30;99.90
49242;DHT22;35079;52.704;13.814;2022-12-18T11:27:25;-3.30;99.90
49242;DHT22;35079;52.704;13.814;2022-12-18T11:29:51;-3.30;99.90
49242;DHT22;35079;52.704;13.814;2022-12-18T18:05:34;-3.60;99.90
49242;DHT22;35079;52.704;13.814;2022-12-18T18:49:12;-4.20;99.90
49242;DHT22;35079;52.704;13.814;2022-12-18T18:51:41;-4.30;99.90
49242;DHT22;35079;52.704;13.814;2022-12-18T18:55:12;-4.30;99.90
49242;DHT22;35079;52.704;13.814;2022-12-18T18:58:29;-4.30;99.90
49242;DHT22;35079;52.704;13.814;2022-12-18T19:01:07;-4.30;99.90
49242;DHT22;35079;52.704;13.814;2022-12-18T19:04:01;-4.20;99.90
49242;DHT22;35079;52.704;13.814;2022-12-18T19:06:42;-4.30;99.90
49242;DHT22;35079;52.704;13.814;2022-12-18T19:12:47;-4.20;99.90
49242;DHT22;35079;52.704;13.814;2022-12-18T19:19:03;-4.50;99.90
49242;DHT22;35079;52.704;13.814;2022-12-18T19:22:08;-4.40;99.90
49242;DHT22;35079;52.704;13.814;2022-12-18T19:24:35;-4.40;99.90
49242;DHT22;35079;52.704;13.814;2022-12-18T19:34:44;-4.20;99.90
49242;DHT22;35079;52.704;13.814;2022-12-18T20:01:39;-4.60;99.90
49242;DHT22;35079;52.704;13.814;2022-12-18T20:07:14;-4.60;99.90
49242;DHT22;35079;52.704;13.814;2022-12-18T20:09:46;-4.70;99.90
49242;DHT22;35079;52.704;13.814;2022-12-18T20:12:37;-4.60;99.90
49242;DHT22;35079;52.704;13.814;2022-12-18T20:15:31;-4.60;99.90
49242;DHT22;35079;52.704;13.814;2022-12-18T20:18:08;-4.60;99.90
49242;DHT22;35079;52.704;13.814;2022-12-18T20:27:25;-4.50;99.90
49242;DHT22;35079;52.704;13.814;2022-12-18T20:30:16;-4.40;99.90
49242;DHT22;35079;52.704;13.814;2022-12-18T20:46:02;-4.50;99.90
49242;DHT22;35079;52.704;13.814;2022-12-18T20:51:44;-4.40;99.90
49242;DHT22;35079;52.704;13.814;2022-12-18T21:17:43;-4.30;99.90
49242;DHT22;35079;52.704;13.814;2022-12-18T21:43:11;-4.20;99.90
